Etusivu
METAR-TAF:

METAR-TAF

Lentoasemat :

Winona Municipal Airport (Max Conrad Field)

Winona, Minnesota, Yhdysvallat

Leveyspiiri: 44-05N, Pituuspiiri: 091-42W, korkeus merenpinnasta: 200 m

Tämänhetkinen sää

Tämä raportti tehtiin 27 minuuttia sitten, kello 09.16 UTC
Tuuli 11 kn luoteesta
Lämpötila 10°C
Kosteus 43%
Ilmanpaine 1012 hPa
Näkyvyys: 16.1 km
selkeää

METAR: KONA 260916Z AUTO 32011KT 10SM CLR 10/M02 A2989 RMK AO2

Aika: 04:43 (09:43 UTC)


TAF: puuttuu

Säähavainnot ja -ennusteet yli 4000 lentoasemalta (METAR- ja TAF-raportit).

Käytössä olevat sääasemat on merkitty karttaan keltaisilla ja punaisilla pisteillä.

Aseta hiiri pisteen päälle nähdäksesi sääaseman nimen.

Klikkaa sitten nähdäksesi säähavainnot ja -ennusteet.

Kartan vaihtaminen: klikkaa mustalla rastilla varustettuja vihreitä pisteitä, niin voit zoomata sisään; viivalla varustettua vihreää pistettä, niin voit zoomata ulos tai vihreitä nuolia, niin pääset viereisille kartoille.


METAR-TAF: